METAR Data
IDs: Format: Raw Decoded Include TAF

Data at: 0317 UTC 25 Feb 2021

EBCV 250255Z AUTO 19007KT 9999 NCD 10/07 Q1025 BLU